createdAt,value
2022-09-18T00:01:26.742Z,10.10
2022-09-18T00:03:58.900Z,10.10
2022-09-18T00:06:31.207Z,10.10
2022-09-18T00:09:00.062Z,10.00
2022-09-18T00:11:30.625Z,10.00
2022-09-18T00:13:57.649Z,9.90
2022-09-18T00:16:25.881Z,10.00
2022-09-18T00:18:53.127Z,10.00
2022-09-18T00:21:24.755Z,9.80
2022-09-18T00:23:55.165Z,9.80
2022-09-18T00:26:22.550Z,9.80
2022-09-18T00:28:49.342Z,9.80
2022-09-18T00:31:29.457Z,9.80
2022-09-18T00:33:58.071Z,9.80
2022-09-18T00:36:25.245Z,9.90
2022-09-18T00:38:52.399Z,9.90
2022-09-18T00:41:25.368Z,10.00
2022-09-18T00:43:54.332Z,10.10
2022-09-18T00:46:33.787Z,10.10
2022-09-18T00:49:27.158Z,10.10
2022-09-18T00:51:57.179Z,10.20
2022-09-18T00:54:55.912Z,10.10
2022-09-18T00:57:28.766Z,10.20
2022-09-18T00:59:56.074Z,10.20
2022-09-18T01:02:23.161Z,10.20
2022-09-18T01:04:51.323Z,10.20
2022-09-18T01:07:42.836Z,10.20
2022-09-18T01:10:22.484Z,10.10
2022-09-18T01:12:56.230Z,10.10
2022-09-18T01:15:35.042Z,10.10
2022-09-18T01:18:32.280Z,10.10
2022-09-18T01:21:08.670Z,10.00
2022-09-18T01:24:09.285Z,10.00
2022-09-18T01:26:54.140Z,10.00
2022-09-18T01:29:52.219Z,9.80
2022-09-18T01:32:26.215Z,9.70
2022-09-18T01:35:39.543Z,9.70
2022-09-18T01:38:11.128Z,9.70
2022-09-18T01:40:51.702Z,9.60
2022-09-18T01:43:20.517Z,9.50
2022-09-18T01:45:50.452Z,9.50
2022-09-18T01:48:28.374Z,9.40
2022-09-18T01:51:01.036Z,9.40
2022-09-18T01:53:33.972Z,9.50
2022-09-18T01:56:09.878Z,9.40
2022-09-18T01:58:37.942Z,9.40
2022-09-18T02:01:13.202Z,9.50
2022-09-18T02:03:45.703Z,9.50
2022-09-18T02:06:29.275Z,9.40
2022-09-18T02:08:59.397Z,9.50
2022-09-18T02:11:26.611Z,9.50
2022-09-18T02:14:08.372Z,9.50
2022-09-18T02:16:43.991Z,9.50
2022-09-18T02:19:27.914Z,9.60
2022-09-18T02:21:58.192Z,9.80
2022-09-18T02:24:29.794Z,9.70
2022-09-18T02:26:58.293Z,9.70
2022-09-18T02:29:25.996Z,9.70
2022-09-18T02:31:53.274Z,9.60
2022-09-18T02:34:21.585Z,9.50
2022-09-18T02:37:01.279Z,9.50
2022-09-18T02:39:47.094Z,9.60
2022-09-18T02:42:32.012Z,9.50
2022-09-18T02:45:06.140Z,9.60
2022-09-18T02:47:51.733Z,9.50
2022-09-18T02:51:00.788Z,9.40
2022-09-18T02:53:30.595Z,9.40
2022-09-18T02:56:09.814Z,9.40
2022-09-18T02:58:47.074Z,9.40
2022-09-18T03:01:15.229Z,9.40
2022-09-18T03:03:42.176Z,9.40
2022-09-18T03:06:09.620Z,9.40
2022-09-18T03:08:37.015Z,9.30
2022-09-18T03:11:04.373Z,9.40
2022-09-18T03:13:31.320Z,9.30
2022-09-18T03:15:58.567Z,9.20
2022-09-18T03:18:25.748Z,9.10
2022-09-18T03:20:52.674Z,9.10
2022-09-18T03:23:19.797Z,8.90
2022-09-18T03:25:50.277Z,8.90
2022-09-18T03:28:17.807Z,8.80
2022-09-18T03:30:45.519Z,8.90
2022-09-18T03:33:12.528Z,8.90
2022-09-18T03:35:39.535Z,8.90
2022-09-18T03:38:07.006Z,8.90
2022-09-18T03:40:33.961Z,8.90
2022-09-18T03:43:00.882Z,8.90
2022-09-18T03:45:27.868Z,8.90
2022-09-18T03:47:54.750Z,8.90
2022-09-18T03:50:21.614Z,8.90
2022-09-18T03:52:51.315Z,8.90
2022-09-18T03:55:18.775Z,8.80
2022-09-18T03:57:46.554Z,8.70
2022-09-18T04:00:14.673Z,8.70
2022-09-18T04:02:42.798Z,8.70
2022-09-18T04:05:09.799Z,8.80
2022-09-18T04:07:36.982Z,8.80
2022-09-18T04:10:04.260Z,8.90
2022-09-18T04:12:31.239Z,9.00
2022-09-18T04:14:58.463Z,9.00
2022-09-18T04:17:25.296Z,9.10
2022-09-18T04:19:53.811Z,9.00
2022-09-18T04:22:22.025Z,9.00
2022-09-18T04:24:50.509Z,9.00
2022-09-18T04:27:17.853Z,9.10
2022-09-18T04:29:45.175Z,9.10
2022-09-18T04:32:12.086Z,9.20
2022-09-18T04:34:38.911Z,9.20
2022-09-18T04:37:10.210Z,9.10
2022-09-18T04:39:37.666Z,9.20
2022-09-18T04:42:04.864Z,9.20
2022-09-18T04:44:31.913Z,9.30
2022-09-18T04:46:59.146Z,9.40
2022-09-18T04:49:26.059Z,9.50
2022-09-18T04:51:52.969Z,9.60
2022-09-18T04:54:20.076Z,9.70
2022-09-18T04:56:47.375Z,9.70
2022-09-18T04:59:14.208Z,9.80
2022-09-18T05:01:41.288Z,9.80
2022-09-18T05:04:08.518Z,9.90
2022-09-18T05:06:35.475Z,10.00
2022-09-18T05:09:02.760Z,10.10
2022-09-18T05:11:29.799Z,10.20
2022-09-18T05:13:56.913Z,10.20
2022-09-18T05:16:26.766Z,10.20
2022-09-18T05:18:54.031Z,10.40
2022-09-18T05:21:21.631Z,10.50
2022-09-18T05:23:48.506Z,10.50
2022-09-18T05:26:15.618Z,10.60
2022-09-18T05:28:42.546Z,10.70
2022-09-18T05:31:09.620Z,10.80
2022-09-18T05:33:36.878Z,10.80
2022-09-18T05:36:05.789Z,10.70
2022-09-18T05:38:32.731Z,10.70
2022-09-18T05:41:01.878Z,10.70
2022-09-18T05:43:29.282Z,10.80
2022-09-18T05:45:56.989Z,11.00
2022-09-18T05:48:24.390Z,11.30
2022-09-18T05:50:52.198Z,11.50
2022-09-18T05:53:20.776Z,11.50
2022-09-18T05:55:48.256Z,11.60
2022-09-18T05:58:20.178Z,11.70
2022-09-18T06:00:47.586Z,11.70
2022-09-18T06:03:16.728Z,11.80
2022-09-18T06:05:51.139Z,11.90
2022-09-18T06:08:18.274Z,11.90
2022-09-18T06:10:45.361Z,12.00
2022-09-18T06:13:15.685Z,12.10
2022-09-18T06:15:52.401Z,12.30
2022-09-18T06:18:19.869Z,12.50
2022-09-18T06:20:56.922Z,12.70
2022-09-18T06:23:25.217Z,12.80
2022-09-18T06:26:03.837Z,12.80
2022-09-18T06:28:32.511Z,12.90
2022-09-18T06:31:00.590Z,13.00
2022-09-18T06:33:30.143Z,13.10
2022-09-18T06:35:58.307Z,13.40
2022-09-18T06:38:25.328Z,13.70
2022-09-18T06:40:53.446Z,14.00
2022-09-18T06:43:21.110Z,14.00
2022-09-18T06:45:55.688Z,14.90
2022-09-18T06:48:23.864Z,15.30
2022-09-18T06:50:55.303Z,15.30
2022-09-18T06:53:22.782Z,15.20
2022-09-18T06:55:50.711Z,14.90
2022-09-18T06:58:21.557Z,15.00
2022-09-18T07:00:48.584Z,15.10
2022-09-18T07:03:15.580Z,15.30
2022-09-18T07:05:45.683Z,15.60
2022-09-18T07:08:13.391Z,16.60
2022-09-18T07:10:41.165Z,18.60
2022-09-18T07:13:09.271Z,18.70
2022-09-18T07:15:36.910Z,18.60
2022-09-18T07:18:08.221Z,18.10
2022-09-18T07:20:35.502Z,18.60
2022-09-18T07:23:03.104Z,18.90
2022-09-18T07:25:32.130Z,18.70
2022-09-18T07:28:04.070Z,18.60
2022-09-18T07:30:30.997Z,19.30
2022-09-18T07:32:57.859Z,19.40
2022-09-18T07:35:24.789Z,19.30
2022-09-18T07:37:51.968Z,19.30
2022-09-18T07:40:19.228Z,18.50
2022-09-18T07:42:46.143Z,18.30
2022-09-18T07:45:13.504Z,18.30
2022-09-18T07:47:40.636Z,18.00
2022-09-18T07:50:09.188Z,17.70
2022-09-18T07:52:36.226Z,17.40
2022-09-18T07:55:03.634Z,17.30
2022-09-18T07:57:30.577Z,16.90
2022-09-18T07:59:57.531Z,17.30
2022-09-18T08:02:24.471Z,17.70
2022-09-18T08:04:51.608Z,17.90
2022-09-18T08:07:19.292Z,17.80
2022-09-18T08:09:46.541Z,17.70
2022-09-18T08:12:13.573Z,17.50
2022-09-18T08:14:40.388Z,17.50
2022-09-18T08:17:07.436Z,17.50
2022-09-18T08:19:34.550Z,17.60
2022-09-18T08:22:01.514Z,17.80
2022-09-18T08:24:29.096Z,17.60
2022-09-18T08:27:03.427Z,17.70
2022-09-18T08:29:33.355Z,17.80
2022-09-18T08:32:00.520Z,17.70
2022-09-18T08:34:28.156Z,17.80
2022-09-18T08:36:55.907Z,17.70
2022-09-18T08:39:22.826Z,17.60
2022-09-18T08:42:01.954Z,17.70
2022-09-18T08:44:44.481Z,17.00
2022-09-18T08:47:23.540Z,17.00
2022-09-18T08:50:19.949Z,16.80
2022-09-18T08:52:51.243Z,17.00
2022-09-18T08:55:30.353Z,17.00
2022-09-18T08:58:31.042Z,17.30
2022-09-18T09:01:03.571Z,17.80
2022-09-18T09:03:54.427Z,18.00
2022-09-18T09:06:48.573Z,18.40
2022-09-18T09:09:56.263Z,18.70
2022-09-18T09:12:39.873Z,18.60
2022-09-18T09:15:19.534Z,18.70
2022-09-18T09:18:01.389Z,18.90
2022-09-18T09:20:54.803Z,20.10
2022-09-18T09:23:46.267Z,20.80
2022-09-18T09:26:23.344Z,20.90
2022-09-18T09:29:09.661Z,20.30
2022-09-18T09:31:41.035Z,19.80
2022-09-18T09:34:20.957Z,19.70
2022-09-18T09:36:50.787Z,19.80
2022-09-18T09:39:29.228Z,19.80
2022-09-18T09:42:03.344Z,19.80
2022-09-18T09:44:33.219Z,19.90
2022-09-18T09:47:02.476Z,20.40
2022-09-18T09:49:33.810Z,21.10
2022-09-18T09:52:09.324Z,22.80
2022-09-18T09:54:36.706Z,24.40
2022-09-18T09:57:10.061Z,27.10
2022-09-18T09:59:55.373Z,27.00
2022-09-18T10:02:37.181Z,26.20
2022-09-18T10:05:12.998Z,27.20
2022-09-18T10:08:03.330Z,28.00
2022-09-18T10:10:45.684Z,28.00
2022-09-18T10:13:25.740Z,27.20
2022-09-18T10:16:05.121Z,28.50
2022-09-18T10:18:39.774Z,28.40
2022-09-18T10:21:16.832Z,29.10
2022-09-18T10:23:55.080Z,28.90
2022-09-18T10:26:43.699Z,27.90
2022-09-18T10:29:11.078Z,27.90
2022-09-18T10:31:50.854Z,27.60
2022-09-18T10:34:45.912Z,26.70
2022-09-18T10:37:14.230Z,24.20
2022-09-18T10:39:53.159Z,22.90
2022-09-18T10:42:23.210Z,22.00
2022-09-18T10:45:01.761Z,21.80
2022-09-18T10:47:32.204Z,23.30
2022-09-18T10:50:11.608Z,24.50
2022-09-18T10:52:40.222Z,24.00
2022-09-18T10:55:09.985Z,24.60
2022-09-18T10:57:41.203Z,26.60
2022-09-18T11:00:34.186Z,29.20
2022-09-18T11:03:04.137Z,28.80
2022-09-18T11:05:37.182Z,27.20
2022-09-18T11:08:17.121Z,25.60
2022-09-18T11:10:51.435Z,25.00
2022-09-18T11:13:26.409Z,25.40
2022-09-18T11:15:56.829Z,26.50
2022-09-18T11:18:26.200Z,27.30
2022-09-18T11:20:56.710Z,28.00
2022-09-18T11:23:32.478Z,28.30
2022-09-18T11:26:21.220Z,28.30
2022-09-18T11:29:07.439Z,29.10
2022-09-18T11:31:39.286Z,30.00
2022-09-18T11:34:28.026Z,30.30
2022-09-18T11:37:02.484Z,29.50
2022-09-18T11:39:39.595Z,27.70
2022-09-18T11:42:17.799Z,23.30
2022-09-18T11:44:45.416Z,20.40
2022-09-18T11:47:12.158Z,19.20
2022-09-18T11:50:10.245Z,18.50
2022-09-18T11:52:44.369Z,17.80
2022-09-18T11:55:33.024Z,17.30
2022-09-18T11:58:10.898Z,17.00
2022-09-18T12:00:45.876Z,16.60
2022-09-18T12:03:17.540Z,16.60
2022-09-18T12:06:06.530Z,16.70
2022-09-18T12:09:23.586Z,17.10
2022-09-18T12:12:28.545Z,18.00
2022-09-18T12:15:17.276Z,19.80
2022-09-18T12:17:51.520Z,20.10
2022-09-18T12:20:48.384Z,19.90
2022-09-18T12:23:20.539Z,20.00
2022-09-18T12:26:09.569Z,19.80
2022-09-18T12:29:12.970Z,19.60
2022-09-18T12:32:20.078Z,19.90
2022-09-18T12:34:59.441Z,19.80
2022-09-18T12:37:42.674Z,19.90
2022-09-18T12:40:34.294Z,19.90
2022-09-18T12:43:32.439Z,20.50
2022-09-18T12:46:10.474Z,22.20
2022-09-18T12:48:49.405Z,23.60
2022-09-18T12:51:46.837Z,23.80
2022-09-18T12:54:13.869Z,22.50
2022-09-18T12:56:48.928Z,22.10
2022-09-18T12:59:38.843Z,21.30
2022-09-18T13:02:37.442Z,21.20
2022-09-18T13:05:45.066Z,21.60
2022-09-18T13:08:21.358Z,22.80
2022-09-18T13:10:53.447Z,22.30
2022-09-18T13:13:59.622Z,21.30
2022-09-18T13:16:50.513Z,20.50
2022-09-18T13:19:46.358Z,19.90
2022-09-18T13:22:17.488Z,19.60
2022-09-18T13:24:48.511Z,19.50
2022-09-18T13:27:17.726Z,19.30
2022-09-18T13:29:56.830Z,19.30
2022-09-18T13:32:37.245Z,19.00
2022-09-18T13:35:13.599Z,19.00
2022-09-18T13:37:42.394Z,18.90
2022-09-18T13:40:31.585Z,19.00
2022-09-18T13:42:59.165Z,18.80
2022-09-18T13:45:28.017Z,18.90
2022-09-18T13:48:14.199Z,18.90
2022-09-18T13:51:03.729Z,18.70
2022-09-18T13:53:43.528Z,18.40
2022-09-18T13:56:16.009Z,18.30
2022-09-18T13:58:57.415Z,18.30
2022-09-18T14:01:43.100Z,18.30
2022-09-18T14:04:41.038Z,18.40
2022-09-18T14:07:31.038Z,18.50
2022-09-18T14:10:04.605Z,18.60
2022-09-18T14:12:35.902Z,18.60
2022-09-18T14:15:24.791Z,18.40
2022-09-18T14:18:31.497Z,17.90
2022-09-18T14:21:18.663Z,17.20
2022-09-18T14:23:48.081Z,16.90
2022-09-18T14:26:37.504Z,16.90
2022-09-18T14:29:14.944Z,16.80
2022-09-18T14:31:44.676Z,16.70
2022-09-18T14:34:40.451Z,16.60
2022-09-18T14:37:22.136Z,16.50
2022-09-18T14:39:49.234Z,16.30
2022-09-18T14:42:35.210Z,16.30
2022-09-18T14:45:14.011Z,16.30
2022-09-18T14:47:46.331Z,16.30
2022-09-18T14:50:26.736Z,16.20
2022-09-18T14:52:54.949Z,16.30
2022-09-18T14:55:27.387Z,16.30
2022-09-18T14:57:59.155Z,16.20
2022-09-18T15:00:30.075Z,16.10
2022-09-18T15:03:01.183Z,16.10
2022-09-18T15:05:29.352Z,16.00
2022-09-18T15:08:14.139Z,15.90
2022-09-18T15:10:44.484Z,15.90
2022-09-18T15:13:14.022Z,15.90
2022-09-18T15:15:43.428Z,16.00
2022-09-18T15:18:27.665Z,15.90
2022-09-18T15:20:56.709Z,15.80
2022-09-18T15:23:33.544Z,15.70
2022-09-18T15:26:05.645Z,15.60
2022-09-18T15:28:36.443Z,15.50
2022-09-18T15:31:07.504Z,15.40
2022-09-18T15:33:36.982Z,15.40
2022-09-18T15:36:04.927Z,15.20
2022-09-18T15:38:42.544Z,15.10
2022-09-18T15:41:29.311Z,15.20
2022-09-18T15:43:56.259Z,15.30
2022-09-18T15:46:41.564Z,15.10
2022-09-18T15:49:29.973Z,15.00
2022-09-18T15:51:58.184Z,14.90
2022-09-18T15:54:27.472Z,14.90
2022-09-18T15:56:57.766Z,14.90
2022-09-18T15:59:35.540Z,14.70
2022-09-18T16:02:08.205Z,14.60
2022-09-18T16:04:36.742Z,14.50
2022-09-18T16:07:14.947Z,14.50
2022-09-18T16:09:46.798Z,14.30
2022-09-18T16:12:29.293Z,14.30
2022-09-18T16:15:02.290Z,14.10
2022-09-18T16:17:29.274Z,14.00
2022-09-18T16:20:01.811Z,13.90
2022-09-18T16:22:31.602Z,13.70
2022-09-18T16:24:58.890Z,13.60
2022-09-18T16:27:27.250Z,13.50
2022-09-18T16:29:54.221Z,13.30
2022-09-18T16:32:21.993Z,13.10
2022-09-18T16:34:49.220Z,12.90
2022-09-18T16:37:17.578Z,12.70
2022-09-18T16:39:45.483Z,12.60
2022-09-18T16:42:18.412Z,12.60
2022-09-18T16:44:46.204Z,12.40
2022-09-18T16:47:15.927Z,12.20
2022-09-18T16:49:45.835Z,12.10
2022-09-18T16:52:14.075Z,12.00
2022-09-18T16:54:41.367Z,12.10
2022-09-18T16:57:22.144Z,12.10
2022-09-18T16:59:50.674Z,11.90
2022-09-18T17:02:24.274Z,11.80
2022-09-18T17:04:53.423Z,11.60
2022-09-18T17:07:20.657Z,11.50
2022-09-18T17:09:47.969Z,11.40
2022-09-18T17:12:15.117Z,11.30
2022-09-18T17:14:41.935Z,11.30
2022-09-18T17:17:09.241Z,11.30
2022-09-18T17:19:36.695Z,11.30
2022-09-18T17:22:03.628Z,11.20
2022-09-18T17:24:30.529Z,11.10
2022-09-18T17:26:57.838Z,11.10
2022-09-18T17:29:25.238Z,11.10
2022-09-18T17:31:52.528Z,11.00
2022-09-18T17:34:22.088Z,10.90
2022-09-18T17:36:49.460Z,10.90
2022-09-18T17:39:17.425Z,10.80
2022-09-18T17:41:46.039Z,10.80
2022-09-18T17:44:13.329Z,10.60
2022-09-18T17:46:40.355Z,10.50
2022-09-18T17:49:07.553Z,10.50
2022-09-18T17:51:35.075Z,10.60
2022-09-18T17:54:04.948Z,10.60
2022-09-18T17:56:33.590Z,10.50
2022-09-18T17:59:06.089Z,10.50
2022-09-18T18:01:36.705Z,10.40
2022-09-18T18:04:05.070Z,10.40
2022-09-18T18:06:32.713Z,10.40
2022-09-18T18:08:59.895Z,10.30
2022-09-18T18:11:27.518Z,10.20
2022-09-18T18:13:56.359Z,10.20
2022-09-18T18:16:30.818Z,10.20
2022-09-18T18:19:06.999Z,10.20
2022-09-18T18:21:34.766Z,10.20
2022-09-18T18:24:09.197Z,10.20
2022-09-18T18:26:38.533Z,10.30
2022-09-18T18:29:11.310Z,10.40
2022-09-18T18:31:40.960Z,10.70
2022-09-18T18:34:10.833Z,10.60
2022-09-18T18:36:40.199Z,10.60
2022-09-18T18:39:12.051Z,10.60
2022-09-18T18:41:40.090Z,10.60
2022-09-18T18:44:08.166Z,10.60
2022-09-18T18:46:36.985Z,10.50
2022-09-18T18:49:09.491Z,10.50
2022-09-18T18:51:45.481Z,10.30
2022-09-18T18:54:14.178Z,10.30
2022-09-18T18:56:41.938Z,10.20
2022-09-18T18:59:12.645Z,10.20
2022-09-18T19:01:40.744Z,10.10
2022-09-18T19:04:11.196Z,10.00
2022-09-18T19:06:40.861Z,10.00
2022-09-18T19:09:18.065Z,9.90
2022-09-18T19:11:50.933Z,9.90
2022-09-18T19:14:31.642Z,9.80
2022-09-18T19:16:59.107Z,9.80
2022-09-18T19:19:28.540Z,9.80
2022-09-18T19:22:00.134Z,9.80
2022-09-18T19:24:28.872Z,9.90
2022-09-18T19:26:55.884Z,10.40
2022-09-18T19:29:22.995Z,10.70
2022-09-18T19:31:50.906Z,10.90
2022-09-18T19:34:20.097Z,10.80
2022-09-18T19:36:50.145Z,10.90
2022-09-18T19:39:19.201Z,10.90
2022-09-18T19:41:52.418Z,11.00
2022-09-18T19:44:37.933Z,11.10
2022-09-18T19:47:25.415Z,11.20
2022-09-18T19:49:54.119Z,11.20
2022-09-18T19:52:26.459Z,11.20
2022-09-18T19:54:55.114Z,11.20
2022-09-18T19:57:24.048Z,11.20
2022-09-18T19:59:54.333Z,11.20
2022-09-18T20:02:22.873Z,11.10
2022-09-18T20:04:50.245Z,11.10
2022-09-18T20:07:17.496Z,11.10
2022-09-18T20:09:44.456Z,11.10
2022-09-18T20:12:11.475Z,11.10
2022-09-18T20:14:38.351Z,11.10
2022-09-18T20:17:05.767Z,11.00
2022-09-18T20:19:32.999Z,11.00
2022-09-18T20:22:03.112Z,11.00
2022-09-18T20:24:33.589Z,11.00
2022-09-18T20:27:01.398Z,11.00
2022-09-18T20:29:29.217Z,11.00
2022-09-18T20:31:58.084Z,10.90
2022-09-18T20:34:25.810Z,11.10
2022-09-18T20:36:54.623Z,11.30
2022-09-18T20:39:21.729Z,11.30
2022-09-18T20:41:51.207Z,11.20
2022-09-18T20:44:19.279Z,11.20
2022-09-18T20:46:46.460Z,11.20
2022-09-18T20:49:17.546Z,11.20
2022-09-18T20:51:44.722Z,11.20
2022-09-18T20:54:14.803Z,11.20
2022-09-18T20:56:44.693Z,11.10
2022-09-18T20:59:17.102Z,10.90
2022-09-18T21:01:46.110Z,10.90
2022-09-18T21:04:19.441Z,10.80
2022-09-18T21:06:55.339Z,10.80
2022-09-18T21:09:27.465Z,10.90
2022-09-18T21:11:56.382Z,11.10
2022-09-18T21:14:24.689Z,11.10
2022-09-18T21:16:51.710Z,11.10
2022-09-18T21:19:19.469Z,11.00
2022-09-18T21:21:49.430Z,11.10
2022-09-18T21:24:17.565Z,11.10
2022-09-18T21:26:49.660Z,11.20
2022-09-18T21:29:20.945Z,11.30
2022-09-18T21:31:50.615Z,11.30
2022-09-18T21:34:27.010Z,11.20
2022-09-18T21:37:08.311Z,11.30
2022-09-18T21:39:36.054Z,11.30
2022-09-18T21:42:07.379Z,11.20
2022-09-18T21:44:39.860Z,11.10
2022-09-18T21:47:08.336Z,10.90
2022-09-18T21:49:35.424Z,10.90
2022-09-18T21:52:05.442Z,10.80
2022-09-18T21:54:33.199Z,10.80
2022-09-18T21:57:00.640Z,10.90
2022-09-18T21:59:30.716Z,10.80
2022-09-18T22:01:59.258Z,10.80
2022-09-18T22:04:28.563Z,10.70
2022-09-18T22:06:57.839Z,10.70
2022-09-18T22:09:30.588Z,10.60
2022-09-18T22:11:58.622Z,10.60
2022-09-18T22:14:32.400Z,10.70
2022-09-18T22:17:05.410Z,10.60
2022-09-18T22:19:33.908Z,10.60
2022-09-18T22:22:02.741Z,10.50
2022-09-18T22:24:29.891Z,10.50
2022-09-18T22:26:59.357Z,10.50
2022-09-18T22:29:29.451Z,10.40
2022-09-18T22:31:56.881Z,10.40
2022-09-18T22:34:26.493Z,10.30
2022-09-18T22:36:53.527Z,10.30
2022-09-18T22:39:21.758Z,10.30
2022-09-18T22:41:49.068Z,10.30
2022-09-18T22:44:16.419Z,10.20
2022-09-18T22:46:46.319Z,10.20
2022-09-18T22:49:15.240Z,10.20
2022-09-18T22:51:42.941Z,10.10
2022-09-18T22:54:09.887Z,10.10
2022-09-18T22:56:42.708Z,10.10
2022-09-18T22:59:14.861Z,10.00
2022-09-18T23:01:46.310Z,10.00
2022-09-18T23:04:13.574Z,10.10
2022-09-18T23:06:40.488Z,10.10
2022-09-18T23:09:07.641Z,10.10
2022-09-18T23:11:35.607Z,10.20
2022-09-18T23:14:05.574Z,10.20
2022-09-18T23:16:34.735Z,10.20
2022-09-18T23:19:13.030Z,10.10
2022-09-18T23:21:40.226Z,10.20
2022-09-18T23:24:09.268Z,10.20
2022-09-18T23:26:41.885Z,10.30
2022-09-18T23:29:11.888Z,10.30
2022-09-18T23:31:41.599Z,10.30
2022-09-18T23:34:13.610Z,10.30
2022-09-18T23:36:43.213Z,10.50
2022-09-18T23:39:18.474Z,10.60
2022-09-18T23:41:46.266Z,10.70
2022-09-18T23:44:14.927Z,10.80
2022-09-18T23:46:42.577Z,10.90
2022-09-18T23:49:09.955Z,10.90
2022-09-18T23:51:40.533Z,11.00
2022-09-18T23:54:12.438Z,11.00
2022-09-18T23:56:39.355Z,11.10
2022-09-18T23:59:07.114Z,11.10
